| time (UTC) | temp C | wind direction | speed KPH | gust KPH | rain 1hr cm | rain 24hr cm | rain mn cm | humidity % | barometer mb |
| 20260905114817 | 19 | 278 | 16.1 | 37.0 | 0.00 | 3.40 | 0.00 | 65 | 1015.9 |
| 20260905114319 | 20 | 281 | 22.5 | 37.0 | 0.00 | 3.40 | 0.00 | 64 | 1015.8 |
| 20260905113819 | 20 | 262 | 20.9 | 40.2 | 0.00 | 3.40 | 0.00 | 60 | 1015.8 |
| 20260905113320 | 20 | 229 | 20.9 | 40.2 | 0.00 | 3.40 | 0.00 | 59 | 1015.7 |
| 20260905112820 | 21 | 254 | 19.3 | 33.8 | 0.00 | 3.40 | 0.00 | 59 | 1015.5 |
| 20260905112340 | 21 | 270 | 11.3 | 40.2 | 0.00 | 3.40 | 0.00 | 60 | 1015.5 |
| 20260905111820 | 21 | 255 | 16.1 | 40.2 | 0.00 | 3.40 | 0.00 | 59 | 1015.4 |
| 20260905111321 | 21 | 248 | 12.9 | 32.2 | 0.00 | 3.40 | 0.00 | 58 | 1015.5 |
| 20260905110813 | 21 | 252 | 14.5 | 32.2 | 0.00 | 3.40 | 0.00 | 58 | 1015.5 |
| 20260905110332 | 21 | 257 | 14.5 | 33.8 | 0.00 | 3.40 | 0.00 | 59 | 1015.5 |
| 20260905105832 | 20 | 282 | 17.7 | 33.8 | 0.00 | 3.40 | 0.00 | 59 | 1015.6 |
| 20260905105314 | 20 | 275 | 14.5 | 32.2 | 0.00 | 3.40 | 0.00 | 62 | 1015.8 |
| 20260905104836 | 20 | 243 | 20.9 | 32.2 | 0.00 | 3.40 | 0.00 | 62 | 1015.8 |
| 20260905104338 | 20 | 268 | 12.9 | 30.6 | 0.00 | 3.40 | 0.00 | 62 | 1015.9 |
| 20260905103817 | 20 | 257 | 12.9 | 30.6 | 0.00 | 3.40 | 0.00 | 64 | 1015.9 |
| 20260905103318 | 20 | 276 | 12.9 | 30.6 | 0.00 | 3.40 | 0.00 | 64 | 1015.9 |
| 20260905102819 | 19 | 273 | 16.1 | 32.2 | 0.00 | 3.40 | 0.00 | 64 | 1016.0 |
| 20260905102318 | 19 | 279 | 16.1 | 35.4 | 0.00 | 3.40 | 0.00 | 63 | 1016.1 |
| 20260905101819 | 19 | 277 | 20.9 | 43.5 | 0.00 | 3.40 | 0.00 | 62 | 1016.0 |
| 20260905101320 | 20 | 275 | 27.4 | 43.5 | 0.00 | 3.40 | 0.00 | 60 | 1016.1 |
| 20260905100821 | 20 | 264 | 14.5 | 37.0 | 0.00 | 3.40 | 0.00 | 62 | 1015.9 |
| 20260905100319 | 20 | 278 | 19.3 | 38.6 | 0.00 | 3.40 | 0.00 | 61 | 1016.0 |
| 20260905095820 | 20 | 294 | 11.3 | 32.2 | 0.00 | 3.40 | 0.00 | 61 | 1016.1 |
| 20260905095322 | 20 | 255 | 16.1 | 32.2 | 0.00 | 3.40 | 0.00 | 62 | 1015.9 |
| 20260905094824 | 19 | 198 | 16.1 | 29.0 | 0.00 | 3.40 | 0.00 | 63 | 1015.9 |
| 20260905094327 | 19 | 265 | 11.3 | 29.0 | 0.00 | 3.40 | 0.00 | 64 | 1016.0 |
| 20260905093830 | 19 | 257 | 14.5 | 40.2 | 0.00 | 3.40 | 0.00 | 63 | 1016.2 |
| 20260905093332 | 19 | 274 | 16.1 | 40.2 | 0.00 | 3.40 | 0.00 | 63 | 1015.9 |
| 20260905092814 | 19 | 220 | 14.5 | 32.2 | 0.00 | 3.40 | 0.00 | 64 | 1016.0 |
| 20260905092402 | 19 | 291 | 12.9 | 29.0 | 0.00 | 3.40 | 0.00 | 64 | 1016.0 |
| 20260905091839 | 19 | 263 | 9.7 | 32.2 | 0.00 | 3.40 | 0.00 | 67 | 1015.9 |
| 20260905091320 | 18 | 276 | 16.1 | 32.2 | 0.00 | 3.40 | 0.00 | 68 | 1015.9 |
| 20260905090821 | 18 | 297 | 14.5 | 33.8 | 0.00 | 3.40 | 0.00 | 68 | 1015.9 |
| 20260905090323 | 18 | 288 | 16.1 | 33.8 | 0.00 | 3.40 | 0.00 | 68 | 1015.8 |
| 20260905085826 | 18 | 323 | 12.9 | 32.2 | 0.00 | 3.40 | 0.00 | 69 | 1015.8 |
| 20260905085329 | 18 | 316 | 12.9 | 37.0 | 0.00 | 3.40 | 0.00 | 67 | 1015.8 |
| 20260905084830 | 18 | 250 | 17.7 | 37.0 | 0.00 | 3.40 | 0.00 | 66 | 1015.9 |
| 20260905084330 | 18 | 262 | 9.7 | 35.4 | 0.00 | 3.40 | 0.00 | 70 | 1015.6 |
| 20260905083816 | 18 | 255 | 20.9 | 35.4 | 0.00 | 3.40 | 0.00 | 67 | 1015.8 |
| 20260905083317 | 18 | 238 | 16.1 | 35.4 | 0.00 | 3.40 | 0.00 | 69 | 1015.6 |
| 20260905082816 | 18 | 264 | 14.5 | 33.8 | 0.00 | 3.40 | 0.00 | 71 | 1015.6 |
| 20260905082339 | 18 | 275 | 16.1 | 25.7 | 0.00 | 3.40 | 0.00 | 72 | 1015.5 |
| 20260905081841 | 18 | 293 | 16.1 | 27.4 | 0.00 | 3.40 | 0.00 | 72 | 1015.5 |
| 20260905081321 | 18 | 278 | 17.7 | 30.6 | 0.00 | 3.40 | 0.00 | 73 | 1015.6 |
| 20260905080821 | 18 | 282 | 11.3 | 33.8 | 0.00 | 3.40 | 0.00 | 74 | 1015.5 |
| 20260905080338 | 17 | 262 | 12.9 | 35.4 | 0.00 | 3.40 | 0.00 | 75 | 1015.5 |
| 20260905075818 | 18 | 333 | 11.3 | 35.4 | 0.00 | 3.40 | 0.00 | 75 | 1015.4 |
| 20260905075318 | 18 | 317 | 11.3 | 35.4 | 0.00 | 3.40 | 0.00 | 76 | 1015.4 |
| 20260905074819 | 17 | 290 | 14.5 | 35.4 | 0.00 | 3.40 | 0.00 | 75 | 1015.4 |
| 20260905074320 | 18 | 279 | 12.9 | 33.8 | 0.00 | 3.40 | 0.00 | 76 | 1015.3 |
| 20260905073819 | 17 | 275 | 11.3 | 33.8 | 0.00 | 3.40 | 0.00 | 76 | 1015.2 |
| 20260905073320 | 17 | 266 | 8.0 | 29.0 | 0.00 | 3.40 | 0.00 | 78 | 1015.1 |
| 20260905072822 | 17 | 267 | 14.5 | 29.0 | 0.00 | 3.40 | 0.00 | 77 | 1015.1 |
| 20260905072344 | 17 | 277 | 16.1 | 25.7 | 0.00 | 3.40 | 0.00 | 77 | 1015.1 |
| 20260905071824 | 17 | 278 | 9.7 | 25.7 | 0.00 | 3.40 | 0.00 | 78 | 1015.1 |
| 20260905071345 | 17 | 280 | 12.9 | 32.2 | 0.00 | 3.40 | 0.00 | 78 | 1015.1 |
| 20260905070824 | 17 | 283 | 16.1 | 30.6 | 0.00 | 3.40 | 0.00 | 78 | 1015.2 |
| 20260905070324 | 17 | 305 | 12.9 | 27.4 | 0.00 | 3.40 | 0.00 | 79 | 1015.1 |
| 20260905065826 | 17 | 231 | 11.3 | 19.3 | 0.00 | 3.40 | 0.00 | 80 | 1015.0 |
| 20260905065329 | 17 | 275 | 11.3 | 29.0 | 0.00 | 3.40 | 0.00 | 80 | 1014.9 |
| 20260905064830 | 16 | 200 | 11.3 | 29.0 | 0.00 | 3.40 | 0.00 | 80 | 1014.9 |
| 20260905064313 | 16 | 276 | 9.7 | 25.7 | 0.00 | 3.40 | 0.00 | 81 | 1014.8 |
| 20260905063814 | 16 | 287 | 11.3 | 29.0 | 0.00 | 3.40 | 0.00 | 82 | 1014.8 |
| 20260905063315 | 16 | 250 | 12.9 | 29.0 | 0.00 | 3.40 | 0.00 | 81 | 1014.8 |
| 20260905062818 | 16 | 257 | 8.0 | 25.7 | 0.00 | 3.40 | 0.00 | 82 | 1014.8 |
| 20260905062323 | 16 | 278 | 11.3 | 24.1 | 0.00 | 3.40 | 0.00 | 83 | 1014.7 |
| 20260905061825 | 16 | 259 | 6.4 | 22.5 | 0.00 | 3.40 | 0.00 | 84 | 1014.7 |
| 20260905061325 | 15 | 281 | 8.0 | 22.5 | 0.00 | 3.40 | 0.00 | 84 | 1014.6 |
| 20260905060825 | 15 | 291 | 12.9 | 20.9 | 0.00 | 3.40 | 0.00 | 84 | 1014.7 |
| 20260905060326 | 15 | 278 | 12.9 | 20.9 | 0.00 | 3.40 | 0.00 | 85 | 1014.7 |
| 20260905055826 | 15 | 281 | 9.7 | 20.9 | 0.00 | 3.40 | 0.00 | 86 | 1014.7 |
| 20260905055327 | 15 | 267 | 6.4 | 20.9 | 0.00 | 3.40 | 0.00 | 86 | 1014.5 |
| 20260905054828 | 15 | 241 | 9.7 | 17.7 | 0.00 | 3.40 | 0.00 | 87 | 1014.6 |
| 20260905054328 | 15 | 257 | 9.7 | 17.7 | 0.00 | 3.40 | 0.00 | 87 | 1014.5 |
| 20260905053852 | 15 | 269 | 8.0 | 12.9 | 0.00 | 3.40 | 0.00 | 87 | 1014.5 |
| 20260905053334 | 15 | 255 | 3.2 | 16.1 | 0.00 | 3.40 | 0.00 | 88 | 1014.4 |
| 20260905052816 | 15 | 252 | 9.7 | 16.1 | 0.00 | 3.40 | 0.00 | 87 | 1014.4 |
| 20260905052319 | 15 | 281 | 4.8 | 14.5 | 0.00 | 3.40 | 0.00 | 88 | 1014.3 |
| 20260905051821 | 15 | 265 | 4.8 | 14.5 | 0.00 | 3.40 | 0.00 | 88 | 1014.2 |
| 20260905051324 | 15 | 269 | 6.4 | 16.1 | 0.00 | 3.40 | 0.00 | 88 | 1014.2 |
| 20260905050847 | 15 | 278 | 8.0 | 16.1 | 0.00 | 3.40 | 0.00 | 88 | 1014.1 |
| 20260905050330 | 15 | 275 | 6.4 | 16.1 | 0.00 | 3.40 | 0.00 | 88 | 1014.0 |
| 20260905045853 | 15 | 248 | 6.4 | 17.7 | 0.00 | 3.40 | 0.00 | 88 | 1014.0 |
| 20260905045332 | 14 | 285 | 11.3 | 17.7 | 0.00 | 3.40 | 0.00 | 88 | 1013.9 |
| 20260905044853 | 14 | 254 | 6.4 | 14.5 | 0.00 | 3.40 | 0.00 | 88 | 1013.8 |
| 20260905044312 | 14 | 218 | 4.8 | 16.1 | 0.00 | 3.40 | 0.00 | 89 | 1013.8 |
| 20260905043813 | 15 | 222 | 4.8 | 16.1 | 0.00 | 3.40 | 0.00 | 88 | 1013.7 |
| 20260905043315 | 15 | 281 | 4.8 | 14.5 | 0.00 | 3.40 | 0.00 | 88 | 1013.6 |
| 20260905042835 | 15 | 273 | 6.4 | 12.9 | 0.00 | 3.40 | 0.00 | 88 | 1013.5 |
| 20260905042315 | 15 | 277 | 6.4 | 19.3 | 0.00 | 3.40 | 0.00 | 88 | 1013.4 |
| 20260905041817 | 15 | 264 | 9.7 | 20.9 | 0.00 | 3.40 | 0.00 | 88 | 1013.4 |
| 20260905041320 | 15 | 249 | 8.0 | 20.9 | 0.00 | 3.40 | 0.00 | 88 | 1013.4 |
| 20260905040842 | 15 | 263 | 6.4 | 17.7 | 0.00 | 3.40 | 0.00 | 88 | 1013.3 |
| 20260905040324 | 15 | 276 | 8.0 | 19.3 | 0.00 | 3.40 | 0.00 | 88 | 1013.3 |
| 20260905035847 | 15 | 277 | 11.3 | 19.3 | 0.00 | 3.40 | 0.00 | 88 | 1013.3 |
| 20260905035326 | 15 | 283 | 6.4 | 16.1 | 0.00 | 3.40 | 0.00 | 87 | 1013.2 |
| 20260905034827 | 15 | 262 | 9.7 | 16.1 | 0.00 | 3.40 | 0.00 | 87 | 1013.2 |
| 20260905034326 | 15 | 285 | 8.0 | 12.9 | 0.00 | 3.40 | 0.00 | 87 | 1013.2 |
| 20260905033827 | 15 | 268 | 8.0 | 16.1 | 0.00 | 3.40 | 0.00 | 88 | 1013.1 |
| 20260905033328 | 15 | 259 | 9.7 | 20.9 | 0.00 | 3.40 | 0.00 | 87 | 1013.1 |
| 20260905032830 | 15 | 276 | 11.3 | 20.9 | 0.00 | 3.40 | 0.00 | 87 | 1013.1 |
| 20260905032352 | 15 | 266 | 8.0 | 19.3 | 0.00 | 3.40 | 0.00 | 87 | 1013.0 |
| 20260905031812 | 15 | 264 | 8.0 | 17.7 | 0.00 | 3.40 | 0.00 | 88 | 1012.9 |
| 20260905031314 | 15 | 281 | 8.0 | 19.3 | 0.00 | 3.40 | 0.00 | 87 | 1012.8 |
| 20260905030835 | 15 | 296 | 9.7 | 20.9 | 0.00 | 3.40 | 0.00 | 87 | 1012.8 |
| 20260905030315 | 15 | 276 | 9.7 | 20.9 | 0.00 | 3.40 | 0.00 | 88 | 1012.7 |
| 20260905025817 | 15 | 276 | 4.8 | 20.9 | 0.00 | 3.40 | 0.00 | 88 | 1012.6 |
| 20260905025320 | 15 | 282 | 9.7 | 20.9 | 0.00 | 3.40 | 0.00 | 88 | 1012.5 |
| 20260905024843 | 16 | 276 | 6.4 | 19.3 | 0.00 | 3.40 | 0.00 | 88 | 1012.5 |
| 20260905024325 | 16 | 255 | 9.7 | 17.7 | 0.00 | 3.40 | 0.00 | 88 | 1012.4 |
| 20260905023828 | 16 | 281 | 8.0 | 16.1 | 0.00 | 3.40 | 0.00 | 88 | 1012.4 |
| 20260905023330 | 16 | 267 | 8.0 | 19.3 | 0.00 | 3.40 | 0.00 | 88 | 1012.3 |
| 20260905022849 | 16 | 262 | 11.3 | 24.1 | 0.00 | 3.40 | 0.00 | 88 | 1012.3 |
| 20260905022352 | 16 | 265 | 11.3 | 24.1 | 0.00 | 3.40 | 0.00 | 88 | 1012.2 |
| 20260905021816 | 16 | 271 | 9.7 | 25.7 | 0.00 | 3.40 | 0.00 | 88 | 1012.2 |
| 20260905021320 | 16 | 262 | 9.7 | 20.9 | 0.00 | 3.40 | 0.00 | 88 | 1012.2 |
| 20260905020823 | 16 | 265 | 9.7 | 16.1 | 0.00 | 3.40 | 0.00 | 89 | 1012.1 |
| 20260905020326 | 16 | 230 | 8.0 | 16.1 | 0.00 | 3.40 | 0.00 | 89 | 1012.0 |
| 20260905015828 | 16 | 275 | 4.8 | 16.1 | 0.00 | 3.40 | 0.00 | 89 | 1011.9 |
| 20260905015332 | 16 | 285 | 8.0 | 24.1 | 0.00 | 3.40 | 0.00 | 89 | 1011.9 |
| 20260905014816 | 16 | 261 | 8.0 | 24.1 | 0.00 | 3.40 | 0.00 | 89 | 1012.0 |
| 20260905014316 | 16 | 278 | 6.4 | 14.5 | 0.00 | 3.40 | 0.00 | 90 | 1012.0 |
| 20260905013817 | 16 | 267 | 8.0 | 17.7 | 0.00 | 3.40 | 0.00 | 90 | 1012.0 |
| 20260905013317 | 16 | 253 | 8.0 | 17.7 | 0.00 | 3.40 | 0.00 | 91 | 1011.9 |
| 20260905012820 | 16 | 224 | 6.4 | 12.9 | 0.00 | 3.40 | 0.00 | 91 | 1011.8 |
| 20260905012320 | 16 | 252 | 6.4 | 12.9 | 0.00 | 3.40 | 0.00 | 91 | 1011.8 |
| 20260905011820 | 16 | 267 | 3.2 | 12.9 | 0.00 | 3.40 | 0.00 | 91 | 1011.7 |
| 20260905011323 | 16 | 259 | 6.4 | 14.5 | 0.00 | 3.40 | 0.00 | 90 | 1011.7 |
| 20260905010826 | 16 | 272 | 6.4 | 24.1 | 0.00 | 3.40 | 0.00 | 90 | 1011.7 |
| 20260905010327 | 16 | 264 | 12.9 | 24.1 | 0.00 | 3.40 | 0.00 | 91 | 1011.8 |
| 20260905005831 | 16 | 272 | 6.4 | 22.5 | 0.00 | 3.40 | 0.00 | 91 | 1011.7 |
| 20260905005335 | 16 | 270 | 8.0 | 22.5 | 0.00 | 3.40 | 0.00 | 91 | 1011.7 |
| 20260905004814 | 16 | 263 | 9.7 | 19.3 | 0.00 | 3.40 | 0.00 | 92 | 1011.7 |
| 20260905004314 | 16 | 233 | 8.0 | 19.3 | 0.00 | 3.40 | 0.00 | 92 | 1011.7 |
| 20260905003814 | 16 | 275 | 4.8 | 16.1 | 0.00 | 3.40 | 0.00 | 92 | 1011.7 |
| 20260905003314 | 16 | 278 | 8.0 | 17.7 | 0.00 | 3.40 | 0.00 | 92 | 1011.6 |
| 20260905002815 | 16 | 258 | 11.3 | 17.7 | 0.00 | 3.40 | 0.00 | 92 | 1011.7 |
| 20260905002316 | 16 | 276 | 8.0 | 17.7 | 0.00 | 3.40 | 0.00 | 92 | 1011.6 |
| 20260905001836 | 16 | 268 | 4.8 | 17.7 | 0.00 | 3.40 | 0.00 | 92 | 1011.6 |
| 20260905001315 | 16 | 277 | 6.4 | 17.7 | 0.00 | 3.40 | 0.00 | 91 | 1011.5 |
| 20260905000815 | 16 | 278 | 8.0 | 16.1 | 0.00 | 3.40 | 0.00 | 91 | 1011.6 |
| 20260905000318 | 16 | 260 | 9.7 | 20.9 | 0.00 | 3.40 | 0.00 | 91 | 1011.6 |
| 20260904235817 | 16 | 286 | 11.3 | 20.9 | 0.00 | 3.40 | 0.00 | 91 | 1011.6 |
| 20260904235318 | 16 | 278 | 9.7 | 27.4 | 0.00 | 3.40 | 0.00 | 91 | 1011.4 |
| 20260904234819 | 16 | 277 | 9.7 | 27.4 | 0.00 | 3.40 | 0.00 | 92 | 1011.4 |
| 20260904234321 | 16 | 249 | 14.5 | 22.5 | 0.00 | 3.40 | 0.00 | 92 | 1011.4 |
| 20260904233823 | 16 | 279 | 9.7 | 22.5 | 0.00 | 3.40 | 0.00 | 93 | 1011.2 |
| 20260904233326 | 16 | 280 | 8.0 | 20.9 | 0.00 | 3.40 | 0.00 | 93 | 1011.3 |
| 20260904232829 | 16 | 257 | 9.7 | 17.7 | 0.00 | 3.40 | 0.00 | 93 | 1011.2 |
| 20260904232332 | 16 | 276 | 6.4 | 19.3 | 0.00 | 3.40 | 0.00 | 93 | 1011.1 |
| 20260904231815 | 16 | 288 | 11.3 | 19.3 | 0.00 | 3.40 | 0.00 | 93 | 1011.0 |
| 20260904231316 | 16 | 261 | 11.3 | 17.7 | 0.00 | 3.40 | 0.00 | 93 | 1010.9 |
| 20260904230816 | 16 | 223 | 9.7 | 22.5 | 0.00 | 3.40 | 0.00 | 93 | 1011.0 |
| 20260904230336 | 16 | 238 | 11.3 | 22.5 | 0.00 | 3.40 | 0.00 | 93 | 1011.1 |
| 20260904225815 | 16 | 268 | 9.7 | 22.5 | 0.00 | 3.40 | 0.00 | 94 | 1011.0 |
| 20260904225315 | 16 | 257 | 8.0 | 19.3 | 0.00 | 3.40 | 0.00 | 94 | 1011.0 |
| 20260904224837 | 16 | 264 | 9.7 | 24.1 | 0.00 | 3.40 | 0.00 | 94 | 1011.0 |
| 20260904224317 | 16 | 271 | 14.5 | 25.7 | 0.00 | 3.40 | 0.00 | 94 | 1011.2 |
| 20260904223838 | 16 | 284 | 12.9 | 25.7 | 0.00 | 3.40 | 0.00 | 94 | 1011.1 |
| 20260904223320 | 16 | 274 | 11.3 | 20.9 | 0.00 | 3.40 | 0.00 | 95 | 1010.8 |
| 20260904222822 | 16 | 253 | 9.7 | 20.9 | 0.00 | 3.40 | 0.00 | 95 | 1010.8 |
| 20260904222325 | 16 | 264 | 9.7 | 20.9 | 0.00 | 3.40 | 0.00 | 95 | 1010.8 |
| 20260904221828 | 16 | 262 | 6.4 | 17.7 | 0.00 | 3.40 | 0.00 | 95 | 1010.7 |
| 20260904221331 | 16 | 272 | 6.4 | 19.3 | 0.00 | 3.40 | 0.00 | 95 | 1010.6 |
| 20260904220813 | 16 | 267 | 11.3 | 19.3 | 0.00 | 3.40 | 0.00 | 95 | 1010.4 |
| 20260904220336 | 16 | 272 | 6.4 | 17.7 | 0.00 | 3.40 | 0.00 | 95 | 1010.4 |
| 20260904215813 | 16 | 275 | 8.0 | 16.1 | 0.00 | 3.40 | 0.69 | 95 | 1010.3 |
| 20260904215336 | 16 | 286 | 6.4 | 16.1 | 0.00 | 3.40 | 0.69 | 95 | 1010.4 |
| 20260904214817 | 16 | 269 | 6.4 | 16.1 | 0.00 | 3.40 | 0.69 | 95 | 1010.3 |
| 20260904214317 | 16 | 276 | 6.4 | 14.5 | 0.10 | 3.40 | 0.69 | 95 | 1010.1 |
| 20260904213817 | 16 | 266 | 6.4 | 14.5 | 0.10 | 3.40 | 0.69 | 95 | 1009.9 |
| 20260904213317 | 16 | 258 | 6.4 | 12.9 | 0.10 | 3.40 | 0.69 | 95 | 1009.9 |
| 20260904212817 | 16 | 279 | 4.8 | 16.1 | 0.10 | 3.40 | 0.69 | 95 | 1009.9 |
| 20260904212316 | 16 | 274 | 9.7 | 16.1 | 0.10 | 3.40 | 0.69 | 95 | 1010.1 |
| 20260904211816 | 16 | 267 | 4.8 | 14.5 | 0.20 | 3.40 | 0.69 | 95 | 1009.9 |
| 20260904211336 | 16 | 260 | 8.0 | 19.3 | 0.41 | 3.40 | 0.69 | 95 | 1010.0 |
| 20260904210815 | 16 | 273 | 6.4 | 19.3 | 0.61 | 3.40 | 0.69 | 95 | 1009.9 |
| 20260904210316 | 16 | 248 | 8.0 | 14.5 | 0.79 | 3.40 | 0.69 | 95 | 1009.7 |
| 20260904205816 | 16 | 245 | 8.0 | 14.5 | 0.79 | 3.40 | 0.69 | 95 | 1009.6 |
| 20260904205318 | 16 | 275 | 8.0 | 14.5 | 0.89 | 3.40 | 0.69 | 95 | 1009.4 |
| 20260904204820 | 16 | 281 | 4.8 | 17.7 | 0.79 | 3.30 | 0.66 | 95 | 1009.1 |
| 20260904204323 | 16 | 267 | 4.8 | 22.5 | 0.79 | 3.30 | 0.66 | 95 | 1009.4 |
| 20260904203826 | 16 | 239 | 6.4 | 14.5 | 0.79 | 3.30 | 0.66 | 95 | 1009.5 |
| 20260904203327 | 16 | 274 | 8.0 | 19.3 | 0.89 | 3.30 | 0.66 | 95 | 1009.2 |
| 20260904202831 | 16 | 273 | 6.4 | 16.1 | 0.89 | 3.30 | 0.66 | 95 | 1009.2 |
| 20260904202353 | 16 | 237 | 8.0 | 16.1 | 0.99 | 3.30 | 0.66 | 95 | 1009.2 |
| 20260904201851 | 16 | 226 | 8.0 | 19.3 | 0.99 | 3.20 | 0.64 | 95 | 1009.3 |
| 20260904201352 | 16 | 271 | 6.4 | 19.3 | 0.79 | 3.00 | 0.61 | 95 | 1009.2 |
| 20260904200813 | 16 | 268 | 8.0 | 16.1 | 0.61 | 2.79 | 0.56 | 95 | 1009.1 |
| 20260904200317 | 16 | 259 | 8.0 | 16.1 | 0.41 | 2.59 | 0.51 | 95 | 1009.0 |
| 20260904195820 | 16 | 263 | 8.0 | 16.1 | 0.51 | 2.59 | 0.51 | 95 | 1008.7 |
| 20260904195341 | 16 | 221 | 6.4 | 16.1 | 0.41 | 2.49 | 0.51 | 94 | 1008.5 |
| 20260904194822 | 16 | 274 | 9.7 | 16.1 | 0.51 | 2.49 | 0.51 | 94 | 1008.8 |
| 20260904194324 | 16 | 279 | 4.8 | 19.3 | 0.61 | 2.49 | 0.51 | 94 | 1008.7 |
| 20260904193827 | 16 | 271 | 9.7 | 19.3 | 0.61 | 2.49 | 0.51 | 94 | 1008.8 |
| 20260904193328 | 16 | 204 | 9.7 | 20.9 | 0.71 | 2.39 | 0.48 | 94 | 1008.6 |
| 20260904192850 | 16 | 260 | 9.7 | 22.5 | 0.79 | 2.31 | 0.46 | 94 | 1008.9 |
| 20260904192352 | 15 | 233 | 12.9 | 22.5 | 0.79 | 2.31 | 0.46 | 94 | 1008.8 |
| 20260904191813 | 15 | 229 | 4.8 | 17.7 | 0.79 | 2.21 | 0.43 | 93 | 1008.2 |
| 20260904191315 | 16 | 278 | 3.2 | 19.3 | 0.79 | 2.21 | 0.43 | 93 | 1008.7 |
| 20260904190816 | 16 | 277 | 9.7 | 19.3 | 0.79 | 2.21 | 0.43 | 93 | 1008.9 |
| 20260904190316 | 16 | 278 | 8.0 | 16.1 | 0.79 | 2.21 | 0.43 | 92 | 1008.9 |
| 20260904185818 | 16 | 237 | 8.0 | 22.5 | 0.71 | 2.11 | 0.43 | 92 | 1008.9 |
| 20260904185319 | 16 | 255 | 12.9 | 22.5 | 0.61 | 2.01 | 0.41 | 91 | 1009.4 |
| 20260904184821 | 16 | 263 | 9.7 | 22.5 | 0.61 | 2.01 | 0.41 | 91 | 1009.2 |
| 20260904184320 | 16 | 269 | 12.9 | 25.7 | 0.51 | 1.91 | 0.38 | 90 | 1009.4 |
| 20260904183841 | 16 | 262 | 8.0 | 20.9 | 0.41 | 1.80 | 0.36 | 89 | 1009.4 |
| 20260904183322 | 17 | 274 | 11.3 | 24.1 | 0.30 | 1.70 | 0.33 | 87 | 1009.5 |
| 20260904182824 | 17 | 294 | 8.0 | 29.0 | 0.10 | 1.50 | 0.30 | 84 | 1009.4 |
| 20260904182346 | 18 | 288 | 14.5 | 29.0 | 0.10 | 1.50 | 0.30 | 81 | 1009.5 |
| 20260904181848 | 18 | 303 | 12.9 | 29.0 | 0.00 | 1.40 | 0.28 | 80 | 1009.4 |
| 20260904181330 | 18 | 330 | 11.3 | 25.7 | 0.00 | 1.40 | 0.28 | 81 | 1009.1 |
| 20260904180851 | 18 | 316 | 8.0 | 16.1 | 0.00 | 1.40 | 0.28 | 83 | 1008.7 |
| 20260904180314 | 18 | 338 | 4.8 | 11.3 | 0.00 | 1.40 | 0.28 | 85 | 1009.0 |
| 20260904175837 | 18 | 296 | 4.8 | 9.7 | 0.00 | 1.40 | 0.28 | 85 | 1008.8 |
| 20260904175321 | 18 | 331 | 3.2 | 11.3 | 0.00 | 1.40 | 0.28 | 85 | 1008.7 |
| 20260904174824 | 18 | 319 | 4.8 | 11.3 | 0.00 | 1.40 | 0.28 | 85 | 1008.4 |
| 20260904174329 | 18 | 248 | 6.4 | 12.9 | 0.00 | 1.40 | 0.28 | 85 | 1008.3 |
| 20260904173813 | 18 | 261 | 4.8 | 17.7 | 0.00 | 1.40 | 0.28 | 85 | 1007.9 |
| 20260904173317 | 18 | 278 | 8.0 | 17.7 | 0.00 | 1.40 | 0.28 | 86 | 1007.8 |
| 20260904172841 | 18 | 291 | 6.4 | 20.9 | 0.00 | 1.40 | 0.28 | 86 | 1007.6 |
| 20260904172324 | 18 | 262 | 6.4 | 20.9 | 0.00 | 1.40 | 0.28 | 88 | 1007.5 |
| 20260904171826 | 17 | 250 | 11.3 | 20.9 | 0.00 | 1.40 | 0.28 | 90 | 1007.7 |
| 20260904171331 | 17 | 313 | 9.7 | 24.1 | 0.00 | 1.40 | 0.28 | 93 | 1007.7 |
| 20260904170836 | 17 | 275 | 8.0 | 29.0 | 0.30 | 1.40 | 0.28 | 96 | 1007.5 |
| 20260904170317 | 17 | 274 | 9.7 | 29.0 | 1.40 | 1.40 | 0.28 | 97 | 1007.4 |
| 20260904165819 | 17 | 271 | 12.9 | 29.0 | 1.40 | 1.40 | 0.28 | 97 | 1007.5 |
| 20260904165323 | 17 | 293 | 8.0 | 22.5 | 1.40 | 1.40 | 0.28 | 97 | 1007.5 |
| 20260904164826 | 17 | 281 | 8.0 | 30.6 | 1.40 | 1.40 | 0.28 | 96 | 1007.1 |
| 20260904164329 | 17 | 292 | 12.9 | 37.0 | 1.40 | 1.40 | 0.28 | 96 | 1006.9 |
| 20260904163832 | 17 | 321 | 11.3 | 37.0 | 1.40 | 1.40 | 0.28 | 96 | 1007.0 |
| 20260904163313 | 17 | 307 | 8.0 | 20.9 | 1.40 | 1.40 | 0.28 | 96 | 1007.2 |
| 20260904162816 | 17 | 265 | 6.4 | 20.9 | 1.40 | 1.40 | 0.28 | 96 | 1007.0 |
| 20260904162319 | 17 | 325 | 8.0 | 38.6 | 1.40 | 1.40 | 0.28 | 95 | 1007.0 |
| 20260904161822 | 18 | 300 | 12.9 | 53.1 | 1.40 | 1.40 | 0.28 | 92 | 1006.9 |
| 20260904161324 | 19 | 297 | 19.3 | 54.7 | 1.40 | 1.40 | 0.28 | 90 | 1007.4 |
| 20260904160825 | 22 | 304 | 25.7 | 54.7 | 1.09 | 1.09 | 0.23 | 82 | 1007.0 |
| 20260904160347 | 26 | 274 | 17.7 | 41.8 | 0.00 | 0.00 | 0.00 | 66 | 1005.3 |
| 20260904155829 | 26 | 250 | 22.5 | 41.8 | 0.00 | 0.00 | 0.00 | 64 | 1004.8 |
| 20260904155330 | 26 | 274 | 19.3 | 35.4 | 0.00 | 0.00 | 0.00 | 64 | 1004.8 |
| 20260904154852 | 26 | 258 | 11.3 | 29.0 | 0.00 | 0.00 | 0.00 | 65 | 1004.7 |
| 20260904154313 | 26 | 280 | 14.5 | 29.0 | 0.00 | 0.00 | 0.00 | 65 | 1004.8 |
| 20260904153815 | 26 | 258 | 14.5 | 29.0 | 0.00 | 0.00 | 0.00 | 64 | 1004.8 |
| 20260904153336 | 26 | 249 | 12.9 | 30.6 | 0.00 | 0.00 | 0.00 | 65 | 1004.8 |
| 20260904152816 | 26 | 260 | 17.7 | 35.4 | 0.00 | 0.00 | 0.00 | 64 | 1004.8 |
| 20260904152337 | 26 | 246 | 19.3 | 37.0 | 0.00 | 0.00 | 0.00 | 64 | 1004.8 |
| 20260904151818 | 26 | 239 | 14.5 | 41.8 | 0.00 | 0.00 | 0.00 | 65 | 1004.9 |
| 20260904151319 | 26 | 277 | 19.3 | 41.8 | 0.00 | 0.00 | 0.00 | 65 | 1005.0 |
| 20260904150823 | 26 | 278 | 17.7 | 40.2 | 0.00 | 0.00 | 0.00 | 65 | 1005.0 |
| 20260904150347 | 26 | 279 | 24.1 | 49.9 | 0.00 | 0.00 | 0.00 | 65 | 1005.5 |
| 20260904145829 | 26 | 274 | 20.9 | 49.9 | 0.00 | 0.00 | 0.00 | 65 | 1004.9 |
| 20260904145330 | 26 | 267 | 14.5 | 40.2 | 0.00 | 0.00 | 0.00 | 65 | 1005.2 |
| 20260904144813 | 26 | 283 | 19.3 | 40.2 | 0.00 | 0.00 | 0.00 | 65 | 1005.4 |
| 20260904144316 | 26 | 181 | 11.3 | 46.7 | 0.00 | 0.00 | 0.00 | 66 | 1005.1 |
| 20260904143819 | 26 | 234 | 19.3 | 46.7 | 0.00 | 0.00 | 0.00 | 66 | 1005.3 |
| 20260904143319 | 26 | 256 | 19.3 | 37.0 | 0.00 | 0.00 | 0.00 | 66 | 1005.3 |
| 20260904142822 | 26 | 248 | 14.5 | 41.8 | 0.00 | 0.00 | 0.00 | 66 | 1005.4 |
| 20260904142326 | 26 | 279 | 19.3 | 41.8 | 0.00 | 0.00 | 0.00 | 66 | 1005.4 |
| 20260904141847 | 26 | 222 | 12.9 | 35.4 | 0.00 | 0.00 | 0.00 | 67 | 1005.4 |
| 20260904141326 | 26 | 244 | 16.1 | 35.4 | 0.00 | 0.00 | 0.00 | 67 | 1005.6 |
| 20260904140828 | 26 | 262 | 16.1 | 33.8 | 0.00 | 0.00 | 0.00 | 67 | 1005.7 |
| 20260904140332 | 26 | 217 | 16.1 | 33.8 | 0.00 | 0.00 | 0.00 | 67 | 1005.8 |
| 20260904135815 | 26 | 278 | 16.1 | 30.6 | 0.00 | 0.00 | 0.00 | 67 | 1005.8 |
| 20260904135320 | 26 | 264 | 14.5 | 33.8 | 0.00 | 0.00 | 0.00 | 67 | 1005.9 |
| 20260904134824 | 26 | 272 | 17.7 | 35.4 | 0.00 | 0.00 | 0.00 | 67 | 1005.8 |
| 20260904134327 | 26 | 280 | 11.3 | 35.4 | 0.00 | 0.00 | 0.00 | 67 | 1005.9 |
| 20260904133829 | 26 | 229 | 14.5 | 30.6 | 0.00 | 0.00 | 0.00 | 67 | 1006.0 |
| 20260904133313 | 26 | 278 | 14.5 | 30.6 | 0.00 | 0.00 | 0.00 | 67 | 1006.2 |
| 20260904132815 | 25 | 283 | 9.7 | 30.6 | 0.00 | 0.00 | 0.00 | 68 | 1006.1 |
| 20260904132317 | 25 | 259 | 14.5 | 30.6 | 0.00 | 0.00 | 0.00 | 68 | 1006.2 |
| 20260904131819 | 25 | 198 | 17.7 | 30.6 | 0.00 | 0.00 | 0.00 | 68 | 1006.3 |
| 20260904131319 | 25 | 190 | 11.3 | 32.2 | 0.00 | 0.00 | 0.00 | 69 | 1006.4 |
| 20260904130842 | 25 | 243 | 12.9 | 32.2 | 0.00 | 0.00 | 0.00 | 69 | 1006.4 |
| 20260904130321 | 25 | 256 | 19.3 | 32.2 | 0.00 | 0.00 | 0.00 | 69 | 1006.5 |
| 20260904125821 | 25 | 230 | 12.9 | 27.4 | 0.00 | 0.00 | 0.00 | 69 | 1006.6 |
| 20260904125321 | 25 | 238 | 14.5 | 25.7 | 0.00 | 0.00 | 0.00 | 69 | 1006.8 |
| 20260904124821 | 25 | 210 | 11.3 | 25.7 | 0.00 | 0.00 | 0.00 | 69 | 1006.9 |
| 20260904124324 | 25 | 232 | 12.9 | 24.1 | 0.00 | 0.00 | 0.00 | 68 | 1006.9 |
| 20260904123826 | 25 | 264 | 12.9 | 30.6 | 0.00 | 0.00 | 0.00 | 68 | 1007.0 |
| 20260904123329 | 25 | 232 | 16.1 | 30.6 | 0.00 | 0.00 | 0.00 | 68 | 1007.1 |
| 20260904122831 | 25 | 263 | 12.9 | 32.2 | 0.00 | 0.00 | 0.00 | 67 | 1007.2 |
| 20260904122313 | 25 | 238 | 14.5 | 32.2 | 0.00 | 0.00 | 0.00 | 67 | 1007.3 |
| 20260904121815 | 25 | 264 | 8.0 | 27.4 | 0.00 | 0.00 | 0.00 | 68 | 1007.4 |
| 20260904121317 | 25 | 271 | 17.7 | 29.0 | 0.00 | 0.00 | 0.00 | 68 | 1007.4 |
| 20260904120819 | 25 | 239 | 16.1 | 29.0 | 0.00 | 0.00 | 0.00 | 68 | 1007.5 |
| 20260904120322 | 25 | 236 | 9.7 | 29.0 | 0.00 | 0.00 | 0.00 | 68 | 1007.6 |
| 20260904115824 | 25 | 259 | 12.9 | 24.1 | 0.00 | 0.00 | 0.00 | 69 | 1007.8 |
| 20260904115327 | 24 | 265 | 12.9 | 35.4 | 0.00 | 0.00 | 0.00 | 69 | 1007.9 |